Time;durP1;ratioP1;P1;durP2;ratioP2;P2;SDS_P1;SDS_P2;PMS_P1;PMS_P2;Temp;Humidity;BMP_temperature;BMP_pressure;BME280_temperature;BME280_humidity;BME280_pressure;Samples;Min_cycle;Max_cycle;Signal;HPM_P1;HPM_P2
2022/04/27 00:00:49;;;;;;;20.75;10.25;;;18.40;99.90;;;;;;5027988;28;20037;-69
2022/04/27 00:03:16;;;;;;;14.80;10.00;;;18.30;99.90;;;;;;5028640;28;20098;-69
2022/04/27 00:05:44;;;;;;;19.50;11.35;;;18.20;99.90;;;;;;5030828;28;20666;-68
2022/04/27 00:08:11;;;;;;;16.17;10.35;;;18.20;99.90;;;;;;5032605;28;20505;-69
2022/04/27 00:10:39;;;;;;;15.75;9.48;;;18.30;99.90;;;;;;5034002;28;20049;-68
2022/04/27 00:13:06;;;;;;;19.48;10.73;;;18.30;99.90;;;;;;5029430;28;20021;-68
2022/04/27 00:15:33;;;;;;;14.95;10.07;;;18.40;99.90;;;;;;5030638;28;20056;-68
2022/04/27 00:18:00;;;;;;;19.08;9.15;;;18.50;99.90;;;;;;5023374;28;20018;-69
2022/04/27 00:20:28;;;;;;;15.98;9.52;;;18.50;99.90;;;;;;5030291;28;20041;-69
2022/04/27 00:22:55;;;;;;;17.92;11.38;;;18.50;99.90;;;;;;5031291;28;20029;-68
2022/04/27 00:25:23;;;;;;;11.73;7.47;;;18.40;99.90;;;;;;5019944;28;20038;-68
2022/04/27 00:27:50;;;;;;;15.80;10.00;;;18.40;99.90;;;;;;5028280;28;20022;-68
2022/04/27 00:30:18;;;;;;;14.25;9.40;;;18.40;99.90;;;;;;5033904;28;20022;-69
2022/04/27 00:32:45;;;;;;;16.25;11.05;;;18.40;99.90;;;;;;5031594;28;20100;-69
2022/04/27 00:35:12;;;;;;;18.33;10.60;;;18.40;99.90;;;;;;5032244;28;20527;-69
2022/04/27 00:37:39;;;;;;;20.35;10.70;;;18.40;99.90;;;;;;5026926;28;20033;-69
2022/04/27 00:40:07;;;;;;;17.23;9.63;;;18.40;99.90;;;;;;5027161;28;20026;-69
2022/04/27 00:42:34;;;;;;;18.50;11.70;;;18.40;99.90;;;;;;5022446;28;20025;-69
2022/04/27 00:45:03;;;;;;;20.20;12.45;;;18.40;99.90;;;;;;5025310;28;20037;-69
2022/04/27 00:47:30;;;;;;;25.35;13.73;;;18.30;99.90;;;;;;5040911;28;20030;-69
2022/04/27 00:49:58;;;;;;;23.52;14.13;;;18.20;99.90;;;;;;5028680;28;20026;-69
2022/04/27 00:52:26;;;;;;;21.33;12.90;;;18.20;99.90;;;;;;5028067;28;20052;-69
2022/04/27 00:54:55;;;;;;;25.38;13.20;;;18.20;99.90;;;;;;5030483;28;20116;-69
2022/04/27 00:57:26;;;;;;;20.30;13.25;;;18.20;99.90;;;;;;5030443;28;20440;-69
2022/04/27 00:59:54;;;;;;;30.60;16.13;;;18.20;99.90;;;;;;5030302;28;20485;-68
2022/04/27 01:02:22;;;;;;;22.38;14.25;;;18.10;99.90;;;;;;5032390;28;20041;-69
2022/04/27 01:04:49;;;;;;;27.17;15.57;;;18.00;99.90;;;;;;5024036;28;20116;-68
2022/04/27 01:07:17;;;;;;;31.13;15.48;;;18.10;99.90;;;;;;5032601;28;20386;-68
2022/04/27 01:09:44;;;;;;;25.48;14.70;;;18.10;99.90;;;;;;5030319;28;20033;-69
2022/04/27 01:12:11;;;;;;;24.83;14.60;;;18.10;99.90;;;;;;5030564;28;20159;-69
2022/04/27 01:14:47;;;;;;;27.63;15.95;;;18.20;99.90;;;;;;5035574;28;20076;-69
2022/04/27 01:17:21;;;;;;;25.52;14.77;;;18.30;99.90;;;;;;5029711;28;20119;-68
2022/04/27 01:19:48;;;;;;;24.93;16.30;;;18.20;99.90;;;;;;5024579;28;20113;-68
2022/04/27 01:22:16;;;;;;;24.05;15.00;;;18.30;99.90;;;;;;5031881;28;20496;-69
2022/04/27 01:24:44;;;;;;;26.27;15.90;;;18.30;99.90;;;;;;5029704;28;20053;-68
2022/04/27 01:27:11;;;;;;;22.70;15.05;;;18.40;99.90;;;;;;5031354;28;20013;-68
2022/04/27 01:29:39;;;;;;;26.35;13.00;;;18.40;99.90;;;;;;5029435;28;20060;-69
2022/04/27 01:32:07;;;;;;;18.98;12.65;;;18.40;99.90;;;;;;5030571;28;20502;-69
2022/04/27 01:34:34;;;;;;;25.40;15.18;;;18.40;99.90;;;;;;5025521;28;20018;-69
2022/04/27 01:39:48;;;;;;;65.57;17.80;;;18.40;99.90;;;;;;5031505;28;20032;-69
2022/04/27 01:42:16;;;;;;;38.90;15.23;;;18.50;99.90;;;;;;5031816;28;20501;-69
2022/04/27 01:44:43;;;;;;;27.95;14.60;;;18.40;99.90;;;;;;5025756;28;20067;-69
2022/04/27 01:47:10;;;;;;;21.33;13.82;;;18.30;99.90;;;;;;5011642;28;20102;-67
2022/04/27 01:49:38;;;;;;;25.40;13.90;;;18.30;99.90;;;;;;5027668;28;20040;-68
2022/04/27 01:54:51;;;;;;;28.27;16.38;;;18.40;99.90;;;;;;5029299;28;20441;-67
2022/04/27 01:57:18;;;;;;;24.52;15.52;;;18.30;99.90;;;;;;5031104;28;20032;-67
2022/04/27 01:59:45;;;;;;;28.65;15.88;;;18.40;99.90;;;;;;5030601;28;20099;-67
2022/04/27 02:02:12;;;;;;;28.45;16.10;;;18.40;99.90;;;;;;5014288;28;20132;-67
2022/04/27 02:04:40;;;;;;;26.52;16.00;;;18.50;99.90;;;;;;5030115;28;20029;-68
2022/04/27 02:07:11;;;;;;;26.35;14.85;;;18.60;99.90;;;;;;5028558;28;20089;-67
2022/04/27 02:09:38;;;;;;;30.17;16.35;;;18.70;99.90;;;;;;5029219;28;20017;-68
2022/04/27 02:12:06;;;;;;;28.15;15.73;;;18.80;99.90;;;;;;5030845;28;20499;-68
2022/04/27 02:14:35;;;;;;;27.95;14.63;;;18.80;99.90;;;;;;5026125;28;20033;-67
2022/04/27 02:17:02;;;;;;;23.30;14.23;;;18.70;99.90;;;;;;5030884;28;20048;-67
2022/04/27 02:19:30;;;;;;;20.80;13.52;;;18.70;99.90;;;;;;5011519;28;20030;-67
2022/04/27 02:21:58;;;;;;;22.42;13.73;;;18.60;99.90;;;;;;5020662;28;20087;-67
2022/04/27 02:24:26;;;;;;;19.73;12.70;;;18.60;99.90;;;;;;5023816;28;20018;-67
2022/04/27 02:26:54;;;;;;;21.98;12.60;;;18.60;99.90;;;;;;5031496;28;20500;-67
2022/04/27 02:29:23;;;;;;;17.02;11.70;;;18.60;99.90;;;;;;5025497;28;20156;-67
2022/04/27 02:31:50;;;;;;;25.45;12.90;;;18.80;99.90;;;;;;5033633;28;20057;-67
2022/04/27 02:34:18;;;;;;;20.95;13.55;;;18.70;99.90;;;;;;5032107;28;21665;-67
2022/04/27 02:36:45;;;;;;;21.85;12.95;;;18.80;99.90;;;;;;5041067;28;20477;-66
2022/04/27 02:39:13;;;;;;;16.05;12.00;;;18.80;99.90;;;;;;5037116;28;20026;-66
2022/04/27 02:41:41;;;;;;;17.88;12.25;;;18.90;99.90;;;;;;5037390;28;20056;-66
2022/04/27 02:44:08;;;;;;;17.98;12.02;;;18.90;99.90;;;;;;5036525;28;20017;-66
2022/04/27 02:46:37;;;;;;;19.95;12.48;;;18.90;99.90;;;;;;5035165;28;20029;-67
2022/04/27 02:52:04;;;;;;;18.55;13.30;;;18.80;99.90;;;;;;5023937;28;20053;-67
2022/04/27 02:54:31;;;;;;;14.98;11.52;;;18.90;99.90;;;;;;5034693;28;20026;-67
2022/04/27 02:56:58;;;;;;;21.02;11.63;;;18.90;99.90;;;;;;5034331;28;20029;-67
2022/04/27 02:59:26;;;;;;;15.93;10.15;;;19.00;99.90;;;;;;5036702;28;20025;-66
2022/04/27 03:01:53;;;;;;;19.35;11.73;;;19.00;99.90;;;;;;5041581;28;20121;-66
2022/04/27 03:04:20;;;;;;;17.13;10.88;;;19.00;99.90;;;;;;5015404;28;20022;-66
2022/04/27 03:06:47;;;;;;;17.92;11.02;;;18.90;99.90;;;;;;5039380;28;20027;-66
2022/04/27 03:09:15;;;;;;;17.42;12.77;;;18.90;99.90;;;;;;5017671;28;20026;-66
2022/04/27 03:11:42;;;;;;;20.58;14.80;;;18.90;99.90;;;;;;5043304;28;20057;-67
2022/04/27 03:14:09;;;;;;;23.83;16.00;;;18.90;99.90;;;;;;5037415;28;20568;-67
2022/04/27 03:16:36;;;;;;;18.45;14.68;;;19.00;99.90;;;;;;5037858;28;20044;-67
2022/04/27 03:19:04;;;;;;;19.38;14.25;;;19.00;99.90;;;;;;5036161;28;20560;-67
2022/04/27 03:21:32;;;;;;;20.77;15.88;;;18.90;99.90;;;;;;5055762;28;20017;-66
2022/04/27 03:24:00;;;;;;;22.75;15.10;;;19.00;99.90;;;;;;5039643;28;20021;-67
2022/04/27 03:26:27;;;;;;;21.77;13.00;;;19.00;99.90;;;;;;5038872;28;20028;-67
2022/04/27 03:28:54;;;;;;;19.80;14.57;;;18.90;99.90;;;;;;5035510;28;20049;-67
2022/04/27 03:31:21;;;;;;;22.15;14.50;;;19.00;99.90;;;;;;5037904;28;20029;-67
2022/04/27 03:33:49;;;;;;;19.02;13.65;;;18.90;99.90;;;;;;5033881;28;20029;-67
2022/04/27 03:36:16;;;;;;;22.75;13.77;;;18.80;99.90;;;;;;5035992;28;20026;-66
2022/04/27 03:38:44;;;;;;;21.25;13.30;;;18.80;99.90;;;;;;5036002;28;20060;-67
2022/04/27 03:41:12;;;;;;;14.88;12.45;;;18.90;99.90;;;;;;5036469;28;20022;-67
2022/04/27 03:43:39;;;;;;;20.00;12.32;;;18.80;99.90;;;;;;5038949;28;20488;-66
2022/04/27 03:46:07;;;;;;;17.02;13.13;;;18.80;99.90;;;;;;5040342;28;20060;-66
2022/04/27 03:48:34;;;;;;;14.98;12.00;;;18.90;99.90;;;;;;5031612;28;20013;-66
2022/04/27 03:51:01;;;;;;;17.60;12.05;;;18.90;99.90;;;;;;5031840;28;20037;-66
2022/04/27 03:53:28;;;;;;;17.33;12.27;;;19.00;99.90;;;;;;5032281;28;20021;-66
2022/04/27 03:55:56;;;;;;;18.17;11.82;;;18.90;99.90;;;;;;5034421;28;20026;-66
2022/04/27 03:58:23;;;;;;;16.70;12.10;;;18.90;99.90;;;;;;5032432;28;20390;-66
2022/04/27 04:00:50;;;;;;;15.48;11.98;;;18.90;99.90;;;;;;5031821;28;20108;-67
2022/04/27 04:03:18;;;;;;;14.65;12.32;;;18.90;99.90;;;;;;5032291;28;20394;-66
2022/04/27 04:05:45;;;;;;;17.75;12.48;;;18.80;99.90;;;;;;5025044;28;20085;-67
2022/04/27 04:08:12;;;;;;;15.35;12.57;;;18.80;99.90;;;;;;5030806;28;20418;-67
2022/04/27 04:10:40;;;;;;;19.80;14.25;;;18.90;99.90;;;;;;5030513;28;20072;-67
2022/04/27 04:13:07;;;;;;;19.10;14.52;;;19.00;99.90;;;;;;5030075;28;20079;-68
2022/04/27 04:15:37;;;;;;;15.57;13.20;;;19.00;99.90;;;;;;5034396;28;20108;-67
2022/04/27 04:18:07;;;;;;;19.52;14.27;;;18.90;99.90;;;;;;5034691;28;20101;-67
2022/04/27 04:20:35;;;;;;;18.33;14.45;;;18.90;99.90;;;;;;5036390;28;20048;-67
2022/04/27 04:23:02;;;;;;;19.52;13.85;;;18.90;99.90;;;;;;5034919;28;20482;-67
2022/04/27 04:28:32;;;;;;;21.60;15.07;;;19.00;99.90;;;;;;5028151;28;20449;-67
2022/04/27 04:31:02;;;;;;;24.90;15.38;;;18.90;99.90;;;;;;5030720;28;20056;-66
2022/04/27 04:33:29;;;;;;;21.02;13.93;;;19.00;99.90;;;;;;5028479;28;20700;-67
2022/04/27 04:35:58;;;;;;;20.50;15.73;;;19.00;99.90;;;;;;5030270;28;20040;-67
2022/04/27 04:38:26;;;;;;;18.98;14.52;;;19.00;99.90;;;;;;5029223;28;20083;-68
2022/04/27 04:40:53;;;;;;;19.15;13.38;;;18.90;99.90;;;;;;5031581;28;20029;-67
2022/04/27 04:43:21;;;;;;;14.02;12.35;;;18.90;99.90;;;;;;5031501;28;20026;-67
2022/04/27 04:45:50;;;;;;;20.35;13.10;;;19.00;99.90;;;;;;5030992;28;20053;-68
2022/04/27 04:48:17;;;;;;;22.23;16.30;;;19.00;99.90;;;;;;5030768;28;20037;-67
2022/04/27 04:50:45;;;;;;;21.05;14.38;;;19.00;99.90;;;;;;5025555;28;20030;-67
2022/04/27 04:53:12;;;;;;;18.63;14.52;;;19.00;99.90;;;;;;5031466;28;20031;-67
2022/04/27 04:55:39;;;;;;;20.25;14.02;;;19.00;99.90;;;;;;5030459;28;20524;-67
2022/04/27 04:58:06;;;;;;;28.30;13.52;;;19.00;99.90;;;;;;5033765;28;20056;-66
2022/04/27 05:00:34;;;;;;;25.45;14.75;;;19.00;99.90;;;;;;5008101;28;20038;-66
2022/04/27 05:03:01;;;;;;;34.03;17.58;;;19.00;99.90;;;;;;5043164;28;20402;-67
2022/04/27 05:05:28;;;;;;;21.65;14.45;;;19.00;99.90;;;;;;5013326;28;20018;-68
2022/04/27 05:07:56;;;;;;;94.35;20.73;;;19.00;99.90;;;;;;5029198;28;20120;-67
2022/04/27 05:10:23;;;;;;;102.07;19.00;;;19.00;99.90;;;;;;5029300;28;20379;-67
2022/04/27 05:12:50;;;;;;;27.52;16.45;;;19.00;99.90;;;;;;5029383;28;20119;-67
2022/04/27 05:15:17;;;;;;;19.63;14.02;;;18.90;99.90;;;;;;5028809;28;20025;-66
2022/04/27 05:17:45;;;;;;;27.85;15.88;;;18.90;99.90;;;;;;5026098;28;20033;-66
2022/04/27 05:20:12;;;;;;;21.55;15.25;;;18.90;99.90;;;;;;5030121;28;20055;-66
2022/04/27 05:22:39;;;;;;;24.48;15.50;;;18.90;99.90;;;;;;5026910;28;20021;-67
2022/04/27 05:25:08;;;;;;;21.10;15.30;;;18.90;99.90;;;;;;5026938;28;20037;-67
2022/04/27 05:27:39;;;;;;;52.72;17.52;;;18.90;99.90;;;;;;5030291;28;20048;-67
2022/04/27 05:32:55;;;;;;;19.88;14.70;;;18.90;99.90;;;;;;5026173;28;20131;-67
2022/04/27 05:35:22;;;;;;;23.17;16.25;;;18.80;99.90;;;;;;5031339;28;20021;-66
2022/04/27 05:37:50;;;;;;;22.77;16.60;;;18.80;99.90;;;;;;5029192;28;20041;-67
2022/04/27 05:40:17;;;;;;;20.13;15.45;;;18.80;99.90;;;;;;5032079;28;20017;-67
2022/04/27 05:42:47;;;;;;;24.20;16.27;;;18.80;99.90;;;;;;5030077;28;20040;-67
2022/04/27 05:45:14;;;;;;;21.15;14.75;;;18.80;99.90;;;;;;5030332;28;20362;-67
2022/04/27 05:47:44;;;;;;;24.80;14.77;;;18.80;99.90;;;;;;5026496;28;20030;-67
2022/04/27 05:50:11;;;;;;;21.35;15.25;;;18.80;99.90;;;;;;5014968;28;20398;-66
2022/04/27 05:52:58;;;;;;;21.48;14.77;;;18.70;99.90;;;;;;5028879;28;20041;-66
2022/04/27 05:55:25;;;;;;;20.73;15.57;;;18.70;99.90;;;;;;5022829;28;20607;-67
2022/04/27 05:57:53;;;;;;;20.48;14.95;;;18.70;99.90;;;;;;5033977;28;20034;-68
2022/04/27 06:00:20;;;;;;;20.85;14.40;;;18.60;99.90;;;;;;5031697;28;20079;-67
2022/04/27 06:02:47;;;;;;;20.17;13.20;;;18.60;99.90;;;;;;5033727;28;20179;-67
2022/04/27 06:05:15;;;;;;;21.35;14.52;;;18.60;99.90;;;;;;5034948;28;20017;-67
2022/04/27 06:07:42;;;;;;;17.15;13.82;;;18.60;99.90;;;;;;5034586;28;20028;-68
2022/04/27 06:10:10;;;;;;;20.27;14.73;;;18.60;99.90;;;;;;5047275;28;20386;-68
2022/04/27 06:12:46;;;;;;;22.15;14.05;;;18.60;99.90;;;;;;5034122;28;20041;-68
2022/04/27 06:15:15;;;;;;;24.20;15.48;;;18.60;99.90;;;;;;5031812;28;20032;-68
2022/04/27 06:17:42;;;;;;;18.92;14.63;;;18.50;99.90;;;;;;5024045;28;20026;-67
2022/04/27 06:20:10;;;;;;;21.50;16.27;;;18.60;99.90;;;;;;5029172;28;20386;-67
2022/04/27 06:22:38;;;;;;;22.45;16.73;;;18.60;99.90;;;;;;5032695;28;20425;-67
2022/04/27 06:25:06;;;;;;;24.70;17.60;;;18.70;99.90;;;;;;5032271;28;20024;-67
2022/04/27 06:27:33;;;;;;;26.60;17.05;;;18.60;99.90;;;;;;5031940;28;20051;-67
2022/04/27 06:30:01;;;;;;;23.25;16.58;;;18.70;99.90;;;;;;5032618;28;20498;-67
2022/04/27 06:32:31;;;;;;;29.52;17.77;;;18.70;99.90;;;;;;5029858;28;20095;-68
2022/04/27 06:35:00;;;;;;;25.25;16.42;;;18.70;99.90;;;;;;5024960;28;20029;-66
2022/04/27 06:37:27;;;;;;;24.60;16.52;;;18.70;99.90;;;;;;5022892;28;20072;-67
2022/04/27 06:39:55;;;;;;;20.70;16.15;;;18.60;99.90;;;;;;5027813;28;20026;-67
2022/04/27 06:42:23;;;;;;;21.95;17.40;;;18.60;99.90;;;;;;5031784;28;20025;-68
2022/04/27 06:44:50;;;;;;;22.15;17.55;;;18.60;99.90;;;;;;5030224;28;20025;-67
2022/04/27 06:47:17;;;;;;;23.75;15.88;;;18.60;99.90;;;;;;5028697;28;20083;-67
2022/04/27 06:49:45;;;;;;;25.33;16.80;;;18.50;99.90;;;;;;5027418;28;20036;-67
2022/04/27 06:52:12;;;;;;;28.95;16.50;;;18.50;99.90;;;;;;5028858;28;20120;-67
2022/04/27 06:54:39;;;;;;;22.75;17.40;;;18.50;99.90;;;;;;5027099;28;20023;-68
2022/04/27 06:57:07;;;;;;;23.35;16.20;;;18.50;99.90;;;;;;5031841;28;20028;-68
2022/04/27 06:59:34;;;;;;;25.60;16.38;;;18.50;99.90;;;;;;5027786;28;20053;-69
2022/04/27 07:02:02;;;;;;;26.45;15.27;;;18.50;99.90;;;;;;5033324;28;20115;-68
2022/04/27 07:04:36;;;;;;;24.40;15.32;;;18.60;99.90;;;;;;5034209;28;20014;-69
2022/04/27 07:07:04;;;;;;;22.23;13.45;;;18.60;99.90;;;;;;5030044;28;20091;-67
2022/04/27 07:09:32;;;;;;;24.88;15.90;;;18.60;99.90;;;;;;5020554;28;20033;-68
2022/04/27 07:15:15;;;;;;;;;;;18.60;99.90;;;;;;5025280;28;20094;-70
2022/04/27 07:17:43;;;;;;;21.17;15.27;;;18.50;99.90;;;;;;5028808;28;19909;-69
2022/04/27 07:20:11;;;;;;;18.40;16.35;;;18.50;99.90;;;;;;5026669;28;20025;-70
2022/04/27 07:22:39;;;;;;;28.45;17.60;;;18.50;99.90;;;;;;5030655;28;20614;-70
2022/04/27 07:25:07;;;;;;;17.67;15.50;;;18.40;99.90;;;;;;5030047;28;20021;-70
2022/04/27 07:27:36;;;;;;;26.13;16.70;;;18.40;99.90;;;;;;5028526;28;20478;-70
2022/04/27 07:30:05;;;;;;;23.38;16.45;;;18.30;99.90;;;;;;5033060;28;20032;-70
2022/04/27 07:32:33;;;;;;;24.55;16.58;;;18.30;99.90;;;;;;5027545;28;20122;-70
2022/04/27 07:35:01;;;;;;;25.33;16.38;;;18.30;99.90;;;;;;5033749;28;20033;-70
2022/04/27 07:37:29;;;;;;;21.42;15.80;;;18.30;99.90;;;;;;5032571;28;20029;-70
2022/04/27 07:39:58;;;;;;;20.60;17.30;;;18.30;99.90;;;;;;5033473;28;20414;-70
2022/04/27 07:42:26;;;;;;;23.92;16.85;;;18.30;99.90;;;;;;5024252;28;20037;-70
2022/04/27 07:44:53;;;;;;;29.35;17.48;;;18.30;99.90;;;;;;5033239;28;20030;-70
2022/04/27 07:47:22;;;;;;;28.60;18.30;;;18.30;99.90;;;;;;5033580;28;20026;-70
2022/04/27 07:49:50;;;;;;;24.90;16.95;;;18.30;99.90;;;;;;5034171;28;21844;-70
2022/04/27 07:52:19;;;;;;;26.85;17.80;;;18.30;99.90;;;;;;5031547;28;20057;-70
2022/04/27 07:54:48;;;;;;;20.42;17.20;;;18.30;99.90;;;;;;5032662;28;20029;-70
2022/04/27 07:57:17;;;;;;;26.13;17.13;;;18.30;99.90;;;;;;5031544;28;20025;-69
2022/04/27 07:59:46;;;;;;;22.38;15.90;;;18.30;99.90;;;;;;5033904;28;20104;-70
2022/04/27 08:02:16;;;;;;;23.10;16.73;;;18.30;99.90;;;;;;5024339;28;20053;-70
2022/04/27 08:04:45;;;;;;;23.83;17.10;;;18.20;99.90;;;;;;5010638;28;20036;-70
2022/04/27 08:07:14;;;;;;;24.23;17.52;;;18.20;99.90;;;;;;5009305;28;20041;-70
2022/04/27 08:09:42;;;;;;;24.73;18.75;;;18.20;99.90;;;;;;5011146;28;20113;-69
2022/04/27 08:12:10;;;;;;;25.60;18.08;;;18.20;99.90;;;;;;5012296;28;20030;-70
2022/04/27 08:14:43;;;;;;;26.58;18.15;;;18.20;99.90;;;;;;5011611;28;20109;-70
2022/04/27 08:17:12;;;;;;;23.27;17.60;;;18.20;99.90;;;;;;5012326;28;20466;-71
2022/04/27 08:19:45;;;;;;;24.73;18.48;;;18.20;99.90;;;;;;5013143;28;20104;-70
2022/04/27 08:22:31;;;;;;;27.08;18.80;;;18.20;99.90;;;;;;4994853;28;20525;-70
2022/04/27 08:25:04;;;;;;;24.92;18.30;;;18.20;99.90;;;;;;5010028;28;20026;-70
2022/04/27 08:27:34;;;;;;;25.63;18.25;;;18.10;99.90;;;;;;5013112;28;20030;-70
2022/04/27 08:30:02;;;;;;;26.55;18.25;;;18.20;99.90;;;;;;5001156;28;20031;-69
2022/04/27 08:32:35;;;;;;;35.47;19.98;;;18.10;99.90;;;;;;5014260;28;20041;-70
2022/04/27 08:35:05;;;;;;;25.50;18.33;;;18.20;99.90;;;;;;5012078;28;20490;-70
2022/04/27 08:37:34;;;;;;;26.38;19.08;;;18.20;99.90;;;;;;5014287;28;20272;-70
2022/04/27 08:40:02;;;;;;;27.00;19.95;;;18.20;99.90;;;;;;5013268;28;20383;-70
2022/04/27 08:42:30;;;;;;;26.05;18.77;;;18.20;99.90;;;;;;5013220;28;20474;-69
2022/04/27 08:44:57;;;;;;;29.48;19.38;;;18.20;99.90;;;;;;5012817;28;20559;-66
2022/04/27 08:47:27;;;;;;;25.85;18.88;;;18.20;99.90;;;;;;5008000;28;20081;-65
2022/04/27 08:49:55;;;;;;;26.30;17.95;;;18.20;99.90;;;;;;5012594;28;20104;-66
2022/04/27 08:52:24;;;;;;;32.00;19.48;;;18.20;99.90;;;;;;5013303;28;20360;-65
2022/04/27 08:54:53;;;;;;;31.30;18.77;;;18.20;99.90;;;;;;5012380;28;20105;-66
2022/04/27 08:57:21;;;;;;;30.42;20.45;;;18.20;99.90;;;;;;5009322;28;20049;-65
2022/04/27 08:59:49;;;;;;;29.70;19.92;;;18.20;99.90;;;;;;5012140;28;20022;-68
2022/04/27 09:02:29;;;;;;;33.40;21.40;;;18.20;99.90;;;;;;5017937;28;20482;-69
2022/04/27 09:05:10;;;;;;;32.88;21.52;;;18.20;99.90;;;;;;5021021;28;20033;-69
2022/04/27 09:07:56;;;;;;;29.30;20.55;;;18.20;99.90;;;;;;5027686;28;20109;-68
2022/04/27 09:10:25;;;;;;;27.63;18.88;;;18.20;99.90;;;;;;5026465;28;20120;-69
2022/04/27 09:12:57;;;;;;;23.83;18.02;;;18.20;99.90;;;;;;5025429;28;20026;-69
2022/04/27 09:15:27;;;;;;;24.27;19.30;;;18.20;99.90;;;;;;5017488;28;20487;-68
2022/04/27 09:20:47;;;;;;;;;;;18.20;99.90;;;;;;5014229;28;20426;-69
2022/04/27 09:23:32;;;;;;;28.08;18.98;;;18.20;99.90;;;;;;5025380;28;19908;-69
2022/04/27 09:26:15;;;;;;;25.58;19.17;;;18.20;99.90;;;;;;5014914;28;20054;-69
2022/04/27 09:28:49;;;;;;;25.77;19.33;;;18.20;99.90;;;;;;5015804;28;20030;-69
2022/04/27 09:31:31;;;;;;;30.25;19.58;;;18.10;99.90;;;;;;4987001;28;20040;-69
2022/04/27 09:34:01;;;;;;;34.33;21.48;;;18.10;99.90;;;;;;5024580;28;20030;-69
2022/04/27 09:36:30;;;;;;;31.23;21.00;;;18.10;99.90;;;;;;5018162;28;20029;-69
2022/04/27 09:38:58;;;;;;;26.70;19.48;;;18.10;99.90;;;;;;5017837;28;20056;-70
2022/04/27 09:41:41;;;;;;;36.25;23.67;;;18.10;99.90;;;;;;5022895;28;20030;-69
2022/04/27 09:44:30;;;;;;;34.65;22.63;;;18.10;99.90;;;;;;5002176;28;20390;-70
2022/04/27 09:47:05;;;;;;;33.45;23.60;;;18.10;99.90;;;;;;5004975;28;20022;-69
2022/04/27 09:49:37;;;;;;;35.20;23.05;;;18.10;99.90;;;;;;4961027;28;20038;-68
2022/04/27 09:52:07;;;;;;;30.80;21.83;;;18.10;99.90;;;;;;5011102;28;20505;-68
2022/04/27 09:54:41;;;;;;;31.80;21.50;;;18.20;99.90;;;;;;5010471;28;20029;-68
2022/04/27 09:57:11;;;;;;;26.13;20.63;;;18.20;99.90;;;;;;4995324;28;20026;-70
2022/04/27 09:59:41;;;;;;;32.03;19.98;;;18.20;99.90;;;;;;5004894;28;20026;-69
2022/04/27 10:02:17;;;;;;;27.35;19.83;;;18.20;99.90;;;;;;5018257;28;20049;-68
2022/04/27 10:04:46;;;;;;;26.52;19.77;;;18.20;99.90;;;;;;5024474;28;20029;-69
2022/04/27 10:07:15;;;;;;;27.13;19.42;;;18.20;99.90;;;;;;4998709;28;20022;-69
2022/04/27 10:09:44;;;;;;;27.70;19.77;;;18.20;99.90;;;;;;5013015;28;20037;-69
2022/04/27 10:12:15;;;;;;;23.92;19.77;;;18.20;99.90;;;;;;5020913;28;20030;-69
2022/04/27 10:14:44;;;;;;;31.40;21.00;;;18.10;99.90;;;;;;5012172;28;20052;-68
2022/04/27 10:17:15;;;;;;;29.08;21.40;;;18.10;99.90;;;;;;5010162;28;20062;-69
2022/04/27 10:19:51;;;;;;;31.25;22.35;;;18.10;99.90;;;;;;5006510;28;20061;-68
2022/04/27 10:22:32;;;;;;;32.78;22.40;;;18.10;99.90;;;;;;4993305;28;20030;-70
2022/04/27 10:25:09;;;;;;;36.92;23.95;;;18.10;99.90;;;;;;4997682;28;20042;-69
2022/04/27 10:27:44;;;;;;;35.33;22.75;;;18.10;99.90;;;;;;5014333;28;20040;-70
2022/04/27 10:30:15;;;;;;;28.70;21.83;;;18.00;99.90;;;;;;5007289;28;20030;-69
2022/04/27 10:32:45;;;;;;;37.35;21.98;;;18.00;99.90;;;;;;5003431;28;20505;-69
2022/04/27 10:35:27;;;;;;;32.42;22.73;;;18.00;99.90;;;;;;5020026;28;20474;-69
2022/04/27 10:37:57;;;;;;;29.27;20.92;;;18.00;99.90;;;;;;5019434;28;20034;-70
2022/04/27 10:40:38;;;;;;;31.38;22.00;;;18.00;99.90;;;;;;5023737;28;20044;-69
2022/04/27 10:43:15;;;;;;;29.13;21.05;;;18.00;99.90;;;;;;5027878;28;20025;-70
2022/04/27 10:45:47;;;;;;;25.15;20.50;;;18.00;99.90;;;;;;5029993;28;20034;-69
2022/04/27 10:48:27;;;;;;;29.20;20.05;;;18.00;99.90;;;;;;5019648;28;20030;-69
2022/04/27 10:51:04;;;;;;;29.13;20.63;;;17.90;99.90;;;;;;5023225;28;20080;-69
2022/04/27 10:53:42;;;;;;;27.95;20.50;;;18.00;99.90;;;;;;5022644;28;20087;-69
2022/04/27 10:56:29;;;;;;;29.80;22.17;;;17.90;99.90;;;;;;5025073;28;20036;-69
2022/04/27 10:58:57;;;;;;;28.90;21.13;;;18.00;99.90;;;;;;5009387;28;20037;-69
2022/04/27 11:01:31;;;;;;;28.98;20.83;;;18.00;99.90;;;;;;5030728;28;20512;-69
2022/04/27 11:04:00;;;;;;;25.90;21.02;;;18.10;99.90;;;;;;5009895;28;20173;-69
2022/04/27 11:06:30;;;;;;;38.58;23.70;;;18.00;99.90;;;;;;5015576;28;20033;-70
2022/04/27 11:09:22;;;;;;;30.30;22.20;;;18.10;99.90;;;;;;5019372;28;20032;-70
2022/04/27 11:11:56;;;;;;;28.42;23.70;;;18.00;99.90;;;;;;5003099;28;20042;-69
2022/04/27 11:14:37;;;;;;;32.45;21.65;;;18.10;99.90;;;;;;5016060;28;20138;-69
2022/04/27 11:17:06;;;;;;;28.88;21.42;;;18.10;99.90;;;;;;5022760;28;20103;-69
2022/04/27 11:19:42;;;;;;;28.08;20.17;;;18.10;99.90;;;;;;5022294;28;20021;-69
2022/04/27 11:22:16;;;;;;;31.33;20.90;;;18.10;99.90;;;;;;5015477;28;20034;-69
2022/04/27 11:24:48;;;;;;;;;;;18.10;99.90;;;;;;4997277;28;20029;-69
2022/04/27 11:27:28;;;;;;;30.88;20.33;;;18.10;99.90;;;;;;5002773;28;19944;-69
2022/04/27 11:29:59;;;;;;;35.13;20.98;;;18.10;99.90;;;;;;5020534;28;20486;-70
2022/04/27 11:32:47;;;;;;;22.17;19.67;;;18.20;99.90;;;;;;5010281;28;20032;-69
2022/04/27 11:35:50;;;;;;;29.55;21.42;;;18.20;99.90;;;;;;4957473;28;20501;-69
2022/04/27 11:38:20;;;;;;;27.20;20.73;;;18.20;99.90;;;;;;4993443;28;20525;-68
2022/04/27 11:40:51;;;;;;;32.30;23.48;;;18.20;99.90;;;;;;5011881;28;20031;-68
2022/04/27 11:43:27;;;;;;;34.88;21.08;;;18.10;99.90;;;;;;5012351;28;20041;-68
2022/04/27 11:45:58;;;;;;;29.55;22.00;;;18.20;99.90;;;;;;5019070;28;20084;-68
2022/04/27 11:48:30;;;;;;;32.30;21.95;;;18.10;99.90;;;;;;5008877;28;20050;-68
2022/04/27 11:51:00;;;;;;;27.00;20.60;;;18.00;99.90;;;;;;5009926;28;20034;-69
2022/04/27 11:53:29;;;;;;;31.35;21.70;;;18.10;99.90;;;;;;5015704;28;20446;-68
2022/04/27 11:55:58;;;;;;;32.00;22.33;;;18.10;99.90;;;;;;4995337;28;20033;-68
2022/04/27 11:58:29;;;;;;;31.83;22.25;;;18.10;99.90;;;;;;5013859;28;20037;-68
2022/04/27 12:01:01;;;;;;;31.15;23.20;;;18.20;99.90;;;;;;5025766;28;20029;-68
2022/04/27 12:03:40;;;;;;;37.95;23.92;;;18.20;99.90;;;;;;5013661;28;20049;-68
2022/04/27 12:06:09;;;;;;;32.88;23.20;;;18.20;99.90;;;;;;5011166;28;20065;-68
2022/04/27 12:08:42;;;;;;;34.47;22.40;;;18.20;99.90;;;;;;5013788;28;20045;-68
2022/04/27 12:11:10;;;;;;;27.92;21.65;;;18.20;99.90;;;;;;5014972;28;20029;-69
2022/04/27 12:13:39;;;;;;;26.17;22.60;;;18.20;99.90;;;;;;5014333;28;20034;-68
2022/04/27 12:16:07;;;;;;;35.03;22.60;;;18.20;99.90;;;;;;5006463;28;20026;-68
2022/04/27 12:18:35;;;;;;;31.60;21.98;;;18.20;99.90;;;;;;5010847;28;20034;-68
2022/04/27 12:21:20;;;;;;;37.17;24.55;;;18.20;99.90;;;;;;5013880;28;20084;-68
2022/04/27 12:24:20;;;;;;;30.13;23.50;;;18.20;99.90;;;;;;5007326;28;20432;-69
2022/04/27 12:26:47;;;;;;;33.70;22.48;;;18.20;99.90;;;;;;5009968;28;20026;-68
2022/04/27 12:29:15;;;;;;;34.67;24.15;;;18.20;99.90;;;;;;4996268;28;20034;-68
2022/04/27 12:31:44;;;;;;;38.60;24.70;;;18.20;99.90;;;;;;4994935;28;20037;-68
2022/04/27 12:39:41;;;;;;;34.35;23.17;;;18.20;99.90;;;;;;5013063;28;20116;-69
2022/04/27 12:42:10;;;;;;;30.67;22.25;;;18.20;99.90;;;;;;5005866;28;20509;-68
2022/04/27 12:44:42;;;;;;;33.53;23.80;;;18.20;99.90;;;;;;5006107;28;20032;-69
2022/04/27 12:47:11;;;;;;;33.00;23.02;;;18.10;99.90;;;;;;5012319;28;20049;-69
2022/04/27 12:49:41;;;;;;;28.08;22.80;;;18.20;99.90;;;;;;5012437;28;20467;-69
2022/04/27 12:52:25;;;;;;;33.40;24.05;;;18.20;99.90;;;;;;5009440;28;20561;-68
2022/04/27 12:55:15;;;;;;;31.70;23.85;;;18.10;99.90;;;;;;5013230;28;20453;-68
2022/04/27 12:57:51;;;;;;;33.35;24.20;;;18.10;99.90;;;;;;5013966;28;20030;-69
2022/04/27 13:00:38;;;;;;;34.40;23.58;;;18.10;99.90;;;;;;5013277;28;20026;-69
2022/04/27 13:03:10;;;;;;;32.00;23.27;;;18.10;99.90;;;;;;5010875;28;20445;-68
2022/04/27 13:05:40;;;;;;;28.00;21.73;;;18.10;99.90;;;;;;5008969;28;20030;-68
2022/04/27 13:08:09;;;;;;;28.83;20.05;;;18.10;99.90;;;;;;5011724;28;20393;-68